PWSweather.com
Personal Weather Stations
Station Observations
TORPERJOSANG
Carretera De Villel SN , MochalesES 19332

Carretera De Villel SN MochalesES 19332

Lat: 41.09957, Lon: -2.012569

Elevation: 3215

Station Type: PSW-20

http://www.torresp.com

High Low Average
Temperature 62.2°F16.8°F 52.5°F11.4°F 56.7°F13.7°F
Dew Point 53.5°F11.9°F 43.0°F6.1°F 48.6°F9.2°F
Winds 26.5 mph -42.6 mph - Calm Calm 10.4 mph 16.7 mph
Wind Gusts 38.0 mph61.2 mph 2.3 mph3.7 mph 16.0 mph25.7 mph
Humidity 96% 50% 75%
Pressure 29.88 in1011.90 in 29.65 in1004.10 in -
Precipitation 0.00 in0.00 in - -
Hour Temp Dew Point Humidity Winds Wind Gusts Pressure Precip Precip Rate Daily Precip Total
12:00 AM 56.8°F13.8°C 50.4°F10.2°C 79% 9.2 mph WNW14.8 kmh WNW 12.7 mph20.4 kmh 29.88 in1011.9 mb - 0.00 in0.0 mm 0.00 in0.0 mm
12:10 AM 57.0°F13.9°C 50.6°F10.3°C 79% 6.9 mph WSW11.1 kmh WSW 12.7 mph20.4 kmh 29.88 in1011.9 mb - 0.00 in0.0 mm 0.00 in0.0 mm
12:15 AM 57.0°F13.9°C 50.6°F10.3°C 79% 8.1 mph W13.0 kmh W 15.0 mph24.1 kmh 29.88 in1011.9 mb - 0.00 in0.0 mm 0.00 in0.0 mm
12:20 AM 57.0°F13.9°C 50.6°F10.3°C 79% 8.1 mph NW13.0 kmh NW 17.3 mph27.8 kmh 29.88 in1011.9 mb - 0.00 in0.0 mm 0.00 in0.0 mm
12:25 AM 57.2°F14.0°C 50.4°F10.2°C 78% 4.6 mph N7.4 kmh N 11.5 mph18.5 kmh 29.88 in1011.9 mb - 0.00 in0.0 mm 0.00 in0.0 mm
12:30 AM 57.0°F13.9°C 50.6°F10.3°C 79% 9.2 mph W14.8 kmh W 15.0 mph24.1 kmh 29.88 in1011.9 mb - 0.00 in0.0 mm 0.00 in0.0 mm
12:35 AM 57.0°F13.9°C 50.6°F10.3°C 79% 12.7 mph NW20.4 kmh NW 15.0 mph24.1 kmh 29.88 in1011.9 mb - 0.00 in0.0 mm 0.00 in0.0 mm
12:40 AM 57.2°F14.0°C 50.4°F10.2°C 78% 10.4 mph NW16.7 kmh NW 15.0 mph24.1 kmh 29.88 in1011.9 mb - 0.00 in0.0 mm 0.00 in0.0 mm
12:45 AM 57.0°F13.9°C 50.6°F10.3°C 79% 10.4 mph NW16.7 kmh NW 15.0 mph24.1 kmh 29.88 in1011.9 mb - 0.00 in0.0 mm 0.00 in0.0 mm
12:50 AM 57.0°F13.9°C 50.9°F10.5°C 80% 5.8 mph NW9.3 kmh NW 17.3 mph27.8 kmh 29.88 in1011.9 mb - 0.00 in0.0 mm 0.00 in0.0 mm
12:55 AM 56.8°F13.8°C 50.7°F10.4°C 80% 9.2 mph NW14.8 kmh NW 12.7 mph20.4 kmh 29.88 in1011.9 mb - 0.00 in0.0 mm 0.00 in0.0 mm
01:00 AM 56.8°F13.8°C 51.1°F10.6°C 81% 12.7 mph NW20.4 kmh NW 19.6 mph31.5 kmh 29.88 in1011.9 mb - 0.00 in0.0 mm 0.00 in0.0 mm
01:10 AM 56.8°F13.8°C 51.4°F10.8°C 82% 8.1 mph NW13.0 kmh NW 10.4 mph16.7 kmh 29.88 in1011.9 mb - 0.00 in0.0 mm 0.00 in0.0 mm
01:15 AM 56.7°F13.7°C 51.6°F10.9°C 83% 9.2 mph W14.8 kmh W 15.0 mph24.1 kmh 29.88 in1011.9 mb - 0.00 in0.0 mm 0.00 in0.0 mm
01:20 AM 56.7°F13.7°C 51.9°F11.1°C 84% 10.4 mph W16.7 kmh W 17.3 mph27.8 kmh 29.88 in1011.9 mb - 0.00 in0.0 mm 0.00 in0.0 mm
01:25 AM 57.0°F13.9°C 52.2°F11.2°C 84% 9.2 mph W14.8 kmh W 17.3 mph27.8 kmh 29.88 in1011.9 mb - 0.00 in0.0 mm 0.00 in0.0 mm
01:30 AM 57.0°F13.9°C 52.6°F11.4°C 85% 11.5 mph NW18.5 kmh NW 16.1 mph25.9 kmh 29.88 in1011.9 mb - 0.00 in0.0 mm 0.00 in0.0 mm
01:35 AM 57.0°F13.9°C 52.6°F11.4°C 85% 8.1 mph WNW13.0 kmh WNW 13.8 mph22.2 kmh 29.88 in1011.9 mb - 0.00 in0.0 mm 0.00 in0.0 mm
01:40 AM 57.0°F13.9°C 52.6°F11.4°C 85% 9.2 mph S14.8 kmh S 17.3 mph27.8 kmh 29.88 in1011.9 mb - 0.00 in0.0 mm 0.00 in0.0 mm
01:45 AM 57.0°F13.9°C 52.6°F11.4°C 85% 12.7 mph W20.4 kmh W 23.0 mph37.0 kmh 29.88 in1011.9 mb - 0.00 in0.0 mm 0.00 in0.0 mm
01:50 AM 57.2°F14.0°C 52.4°F11.3°C 84% 12.7 mph NW20.4 kmh NW 17.3 mph27.8 kmh 29.88 in1011.9 mb - 0.00 in0.0 mm 0.00 in0.0 mm
01:55 AM 57.2°F14.0°C 52.1°F11.2°C 83% 11.5 mph NW18.5 kmh NW 16.1 mph25.9 kmh 29.88 in1011.9 mb - 0.00 in0.0 mm 0.00 in0.0 mm
02:00 AM 57.4°F14.1°C 52.3°F11.3°C 83% 9.2 mph W14.8 kmh W 15.0 mph24.1 kmh 29.88 in1011.9 mb - 0.00 in0.0 mm 0.00 in0.0 mm
02:10 AM 57.4°F14.1°C 52.3°F11.3°C 83% 11.5 mph NW18.5 kmh NW 18.4 mph29.6 kmh 29.85 in1010.8 mb - 0.00 in0.0 mm 0.00 in0.0 mm
02:15 AM 57.5°F14.2°C 52.4°F11.3°C 83% 9.2 mph NW14.8 kmh NW 13.8 mph22.2 kmh 29.85 in1010.8 mb - 0.00 in0.0 mm 0.00 in0.0 mm
02:20 AM 57.4°F14.1°C 52.3°F11.3°C 83% 5.8 mph NW9.3 kmh NW 10.4 mph16.7 kmh 29.85 in1010.8 mb - 0.00 in0.0 mm 0.00 in0.0 mm
02:25 AM 57.4°F14.1°C 52.3°F11.3°C 83% 11.5 mph NW18.5 kmh NW 13.8 mph22.2 kmh 29.85 in1010.8 mb - 0.00 in0.0 mm 0.00 in0.0 mm
02:30 AM 57.2°F14.0°C 52.1°F11.2°C 83% 9.2 mph NW14.8 kmh NW 15.0 mph24.1 kmh 29.85 in1010.8 mb - 0.00 in0.0 mm 0.00 in0.0 mm
02:35 AM 57.2°F14.0°C 52.1°F11.2°C 83% 10.4 mph W16.7 kmh W 16.1 mph25.9 kmh 29.85 in1010.8 mb - 0.00 in0.0 mm 0.00 in0.0 mm
02:40 AM 57.2°F14.0°C 51.8°F11.0°C 82% 6.9 mph WNW11.1 kmh WNW 9.2 mph14.8 kmh 29.85 in1010.8 mb - 0.00 in0.0 mm 0.00 in0.0 mm
02:45 AM 57.0°F13.9°C 51.9°F11.1°C 83% 3.5 mph NW5.6 kmh NW 8.1 mph13.0 kmh 29.85 in1010.8 mb - 0.00 in0.0 mm 0.00 in0.0 mm
02:50 AM 56.8°F13.8°C 51.7°F10.9°C 83% 8.1 mph W13.0 kmh W 10.4 mph16.7 kmh 29.85 in1010.8 mb - 0.00 in0.0 mm 0.00 in0.0 mm
02:55 AM 56.8°F13.8°C 51.7°F10.9°C 83% 5.8 mph W9.3 kmh W 11.5 mph18.5 kmh 29.85 in1010.8 mb - 0.00 in0.0 mm 0.00 in0.0 mm
03:00 AM 56.7°F13.7°C 51.6°F10.9°C 83% 9.2 mph W14.8 kmh W 12.7 mph20.4 kmh 29.85 in1010.8 mb - 0.00 in0.0 mm 0.00 in0.0 mm
03:10 AM 56.5°F13.6°C 51.1°F10.6°C 82% 9.2 mph NW14.8 kmh NW 13.8 mph22.2 kmh 29.85 in1010.8 mb - 0.00 in0.0 mm 0.00 in0.0 mm
03:15 AM 56.5°F13.6°C 51.1°F10.6°C 82% 5.8 mph W9.3 kmh W 15.0 mph24.1 kmh 29.85 in1010.8 mb - 0.00 in0.0 mm 0.00 in0.0 mm
03:20 AM 56.5°F13.6°C 51.1°F10.6°C 82% 8.1 mph W13.0 kmh W 11.5 mph18.5 kmh 29.85 in1010.8 mb - 0.00 in0.0 mm 0.00 in0.0 mm
03:25 AM 56.3°F13.5°C 51.2°F10.7°C 83% 3.5 mph WSW5.6 kmh WSW 6.9 mph11.1 kmh 29.85 in1010.8 mb - 0.00 in0.0 mm 0.00 in0.0 mm
03:30 AM 56.3°F13.5°C 51.2°F10.7°C 83% 6.9 mph W11.1 kmh W 10.4 mph16.7 kmh 29.85 in1010.8 mb - 0.00 in0.0 mm 0.00 in0.0 mm
03:35 AM 56.3°F13.5°C 50.9°F10.5°C 82% 13.8 mph NW22.2 kmh NW 17.3 mph27.8 kmh 29.85 in1010.8 mb - 0.00 in0.0 mm 0.00 in0.0 mm
03:40 AM 56.1°F13.4°C 50.4°F10.2°C 81% 12.7 mph NW20.4 kmh NW 17.3 mph27.8 kmh 29.85 in1010.8 mb - 0.00 in0.0 mm 0.00 in0.0 mm
03:45 AM 56.1°F13.4°C 50.0°F10.0°C 80% 13.8 mph NW22.2 kmh NW 20.7 mph33.3 kmh 29.85 in1010.8 mb - 0.00 in0.0 mm 0.00 in0.0 mm
03:50 AM 55.9°F13.3°C 49.9°F9.9°C 80% 10.4 mph WNW16.7 kmh WNW 17.3 mph27.8 kmh 29.85 in1010.8 mb - 0.00 in0.0 mm 0.00 in0.0 mm
03:55 AM 55.8°F13.2°C 49.7°F9.8°C 80% 8.1 mph W13.0 kmh W 12.7 mph20.4 kmh 29.85 in1010.8 mb - 0.00 in0.0 mm 0.00 in0.0 mm
04:00 AM 55.8°F13.2°C 50.0°F10.0°C 81% 3.5 mph NW5.6 kmh NW 5.8 mph9.3 kmh 29.85 in1010.8 mb - 0.00 in0.0 mm 0.00 in0.0 mm
04:10 AM 55.4°F13.0°C 49.7°F9.8°C 81% 5.8 mph NW9.3 kmh NW 13.8 mph22.2 kmh 29.83 in1010.2 mb - 0.00 in0.0 mm 0.00 in0.0 mm
04:15 AM 55.4°F13.0°C 49.3°F9.6°C 80% 5.8 mph NW9.3 kmh NW 8.1 mph13.0 kmh 29.83 in1010.2 mb - 0.00 in0.0 mm 0.00 in0.0 mm
04:20 AM 55.4°F13.0°C 49.3°F9.6°C 80% 2.3 mph W3.7 kmh W 8.1 mph13.0 kmh 29.83 in1010.2 mb - 0.00 in0.0 mm 0.00 in0.0 mm
04:25 AM 55.4°F13.0°C 49.3°F9.6°C 80% 8.1 mph W13.0 kmh W 11.5 mph18.5 kmh 29.83 in1010.2 mb - 0.00 in0.0 mm 0.00 in0.0 mm
04:30 AM 55.4°F13.0°C 49.3°F9.6°C 80% 9.2 mph W14.8 kmh W 12.7 mph20.4 kmh 29.83 in1010.2 mb - 0.00 in0.0 mm 0.00 in0.0 mm
04:35 AM 55.4°F13.0°C 49.3°F9.6°C 80% 5.8 mph NW9.3 kmh NW 8.1 mph13.0 kmh 29.83 in1010.2 mb - 0.00 in0.0 mm 0.00 in0.0 mm
04:40 AM 55.4°F13.0°C 49.3°F9.6°C 80% 5.8 mph WSW9.3 kmh WSW 11.5 mph18.5 kmh 29.83 in1010.2 mb - 0.00 in0.0 mm 0.00 in0.0 mm
04:45 AM 55.2°F12.9°C 49.5°F9.7°C 81% 9.2 mph NW14.8 kmh NW 12.7 mph20.4 kmh 29.83 in1010.2 mb - 0.00 in0.0 mm 0.00 in0.0 mm
04:50 AM 55.2°F12.9°C 49.5°F9.7°C 81% 5.8 mph WSW9.3 kmh WSW 10.4 mph16.7 kmh 29.83 in1010.2 mb - 0.00 in0.0 mm 0.00 in0.0 mm
04:55 AM 55.0°F12.8°C 49.3°F9.6°C 81% 11.5 mph W18.5 kmh W 15.0 mph24.1 kmh 29.83 in1010.2 mb - 0.00 in0.0 mm 0.00 in0.0 mm
05:00 AM 55.0°F12.8°C 49.3°F9.6°C 81% 6.9 mph NW11.1 kmh NW 10.4 mph16.7 kmh 29.83 in1010.2 mb - 0.00 in0.0 mm 0.00 in0.0 mm
05:10 AM 55.0°F12.8°C 49.3°F9.6°C 81% 4.6 mph NW7.4 kmh NW 9.2 mph14.8 kmh 29.83 in1010.2 mb - 0.00 in0.0 mm 0.00 in0.0 mm
05:15 AM 54.9°F12.7°C 49.1°F9.5°C 81% 3.5 mph NW5.6 kmh NW 6.9 mph11.1 kmh 29.83 in1010.2 mb - 0.00 in0.0 mm 0.00 in0.0 mm
05:20 AM 54.9°F12.7°C 49.1°F9.5°C 81% 5.8 mph W9.3 kmh W 9.2 mph14.8 kmh 29.83 in1010.2 mb - 0.00 in0.0 mm 0.00 in0.0 mm
05:25 AM 54.9°F12.7°C 49.1°F9.5°C 81% 4.6 mph NW7.4 kmh NW 5.8 mph9.3 kmh 29.83 in1010.2 mb - 0.00 in0.0 mm 0.00 in0.0 mm
05:30 AM 54.7°F12.6°C 49.0°F9.4°C 81% 8.1 mph NW13.0 kmh NW 10.4 mph16.7 kmh 29.83 in1010.2 mb - 0.00 in0.0 mm 0.00 in0.0 mm
05:35 AM 54.5°F12.5°C 48.8°F9.3°C 81% 8.1 mph SW13.0 kmh SW 11.5 mph18.5 kmh 29.83 in1010.2 mb - 0.00 in0.0 mm 0.00 in0.0 mm
05:40 AM 54.3°F12.4°C 48.6°F9.2°C 81% 5.8 mph SW9.3 kmh SW 15.0 mph24.1 kmh 29.83 in1010.2 mb - 0.00 in0.0 mm 0.00 in0.0 mm
05:45 AM 54.3°F12.4°C 48.6°F9.2°C 81% 3.5 mph W5.6 kmh W 5.8 mph9.3 kmh 29.83 in1010.2 mb - 0.00 in0.0 mm 0.00 in0.0 mm
05:50 AM 54.2°F12.3°C 48.4°F9.1°C 81% 9.2 mph W14.8 kmh W 12.7 mph20.4 kmh 29.83 in1010.2 mb - 0.00 in0.0 mm 0.00 in0.0 mm
05:55 AM 54.0°F12.2°C 48.3°F9.1°C 81% 6.9 mph WSW11.1 kmh WSW 11.5 mph18.5 kmh 29.83 in1010.2 mb - 0.00 in0.0 mm 0.00 in0.0 mm
06:00 AM 53.8°F12.1°C 48.1°F8.9°C 81% 5.8 mph W9.3 kmh W 9.2 mph14.8 kmh 29.83 in1010.2 mb - 0.00 in0.0 mm 0.00 in0.0 mm
06:10 AM 53.8°F12.1°C 48.1°F8.9°C 81% 3.5 mph S5.6 kmh S 8.1 mph13.0 kmh 29.83 in1010.2 mb - 0.00 in0.0 mm 0.00 in0.0 mm
06:15 AM 53.6°F12.0°C 47.9°F8.8°C 81% 8.1 mph NW13.0 kmh NW 12.7 mph20.4 kmh 29.83 in1010.2 mb - 0.00 in0.0 mm 0.00 in0.0 mm
06:20 AM 53.6°F12.0°C 47.6°F8.7°C 80% 9.2 mph NW14.8 kmh NW 13.8 mph22.2 kmh 29.83 in1010.2 mb - 0.00 in0.0 mm 0.00 in0.0 mm
06:25 AM 53.4°F11.9°C 47.7°F8.7°C 81% 6.9 mph NW11.1 kmh NW 17.3 mph27.8 kmh 29.83 in1010.2 mb - 0.00 in0.0 mm 0.00 in0.0 mm
06:30 AM 53.4°F11.9°C 47.7°F8.7°C 81% 10.4 mph NW16.7 kmh NW 15.0 mph24.1 kmh 29.83 in1010.2 mb - 0.00 in0.0 mm 0.00 in0.0 mm
06:35 AM 53.4°F11.9°C 47.4°F8.6°C 80% 5.8 mph W9.3 kmh W 12.7 mph20.4 kmh 29.83 in1010.2 mb - 0.00 in0.0 mm 0.00 in0.0 mm
06:40 AM 53.4°F11.9°C 47.1°F8.4°C 79% 5.8 mph NW9.3 kmh NW 10.4 mph16.7 kmh 29.83 in1010.2 mb - 0.00 in0.0 mm 0.00 in0.0 mm
06:45 AM 53.4°F11.9°C 47.1°F8.4°C 79% 9.2 mph NW14.8 kmh NW 13.8 mph22.2 kmh 29.83 in1010.2 mb - 0.00 in0.0 mm 0.00 in0.0 mm
06:50 AM 53.2°F11.8°C 46.9°F8.3°C 79% 9.2 mph NW14.8 kmh NW 10.4 mph16.7 kmh 29.83 in1010.2 mb - 0.00 in0.0 mm 0.00 in0.0 mm
06:55 AM 53.1°F11.7°C 46.7°F8.2°C 79% 4.6 mph NW7.4 kmh NW 10.4 mph16.7 kmh 29.83 in1010.2 mb - 0.00 in0.0 mm 0.00 in0.0 mm
07:00 AM 53.1°F11.7°C 47.1°F8.4°C 80% 3.5 mph WSW5.6 kmh WSW 4.6 mph7.4 kmh 29.83 in1010.2 mb - 0.00 in0.0 mm 0.00 in0.0 mm
07:10 AM 53.1°F11.7°C 47.1°F8.4°C 80% 3.5 mph NW5.6 kmh NW 5.8 mph9.3 kmh 29.83 in1010.2 mb - 0.00 in0.0 mm 0.00 in0.0 mm
07:15 AM 53.1°F11.7°C 47.4°F8.6°C 81% 4.6 mph W7.4 kmh W 8.1 mph13.0 kmh 29.83 in1010.2 mb - 0.00 in0.0 mm 0.00 in0.0 mm
07:20 AM 52.9°F11.6°C 47.2°F8.4°C 81% 4.6 mph W7.4 kmh W 6.9 mph11.1 kmh 29.83 in1010.2 mb - 0.00 in0.0 mm 0.00 in0.0 mm
07:25 AM 53.1°F11.7°C 47.4°F8.6°C 81% 9.2 mph NW14.8 kmh NW 15.0 mph24.1 kmh 29.83 in1010.2 mb - 0.00 in0.0 mm 0.00 in0.0 mm
07:30 AM 53.1°F11.7°C 47.4°F8.6°C 81% 10.4 mph NW16.7 kmh NW 13.8 mph22.2 kmh 29.83 in1010.2 mb - 0.00 in0.0 mm 0.00 in0.0 mm
07:35 AM 53.1°F11.7°C 47.4°F8.6°C 81% 6.9 mph W11.1 kmh W 10.4 mph16.7 kmh 29.83 in1010.2 mb - 0.00 in0.0 mm 0.00 in0.0 mm
07:40 AM 53.1°F11.7°C 47.4°F8.6°C 81% 5.8 mph NW9.3 kmh NW 9.2 mph14.8 kmh 29.83 in1010.2 mb - 0.00 in0.0 mm 0.00 in0.0 mm
07:45 AM 53.1°F11.7°C 47.4°F8.6°C 81% 5.8 mph W9.3 kmh W 8.1 mph13.0 kmh 29.83 in1010.2 mb - 0.00 in0.0 mm 0.00 in0.0 mm
07:50 AM 53.1°F11.7°C 47.7°F8.7°C 82% 6.9 mph W11.1 kmh W 10.4 mph16.7 kmh 29.83 in1010.2 mb - 0.00 in0.0 mm 0.00 in0.0 mm
07:55 AM 53.1°F11.7°C 47.7°F8.7°C 82% 6.9 mph NW11.1 kmh NW 10.4 mph16.7 kmh 29.83 in1010.2 mb - 0.00 in0.0 mm 0.00 in0.0 mm
08:00 AM 52.9°F11.6°C 47.5°F8.6°C 82% 11.5 mph NW18.5 kmh NW 15.0 mph24.1 kmh 29.83 in1010.2 mb - 0.00 in0.0 mm 0.00 in0.0 mm
08:10 AM 52.9°F11.6°C 47.5°F8.6°C 82% 9.2 mph NW14.8 kmh NW 15.0 mph24.1 kmh 29.83 in1010.2 mb - 0.00 in0.0 mm 0.00 in0.0 mm
08:15 AM 53.1°F11.7°C 47.7°F8.7°C 82% 11.5 mph NW18.5 kmh NW 15.0 mph24.1 kmh 29.83 in1010.2 mb - 0.00 in0.0 mm 0.00 in0.0 mm
08:20 AM 53.1°F11.7°C 47.7°F8.7°C 82% 9.2 mph W14.8 kmh W 13.8 mph22.2 kmh 29.83 in1010.2 mb - 0.00 in0.0 mm 0.00 in0.0 mm
08:25 AM 53.1°F11.7°C 47.7°F8.7°C 82% 8.1 mph NW13.0 kmh NW 11.5 mph18.5 kmh 29.83 in1010.2 mb - 0.00 in0.0 mm 0.00 in0.0 mm
08:30 AM 53.1°F11.7°C 47.4°F8.6°C 81% 5.8 mph WNW9.3 kmh WNW 8.1 mph13.0 kmh 29.83 in1010.2 mb - 0.00 in0.0 mm 0.00 in0.0 mm
08:35 AM 53.1°F11.7°C 47.4°F8.6°C 81% 4.6 mph W7.4 kmh W 9.2 mph14.8 kmh 29.83 in1010.2 mb - 0.00 in0.0 mm 0.00 in0.0 mm
08:40 AM 52.9°F11.6°C 47.2°F8.4°C 81% 10.4 mph NW16.7 kmh NW 15.0 mph24.1 kmh 29.83 in1010.2 mb - 0.00 in0.0 mm 0.00 in0.0 mm
08:45 AM 52.9°F11.6°C 47.2°F8.4°C 81% 9.2 mph NNW14.8 kmh NNW 13.8 mph22.2 kmh 29.83 in1010.2 mb - 0.00 in0.0 mm 0.00 in0.0 mm
08:50 AM 52.9°F11.6°C 47.2°F8.4°C 81% 4.6 mph NNW7.4 kmh NNW 8.1 mph13.0 kmh 29.83 in1010.2 mb - 0.00 in0.0 mm 0.00 in0.0 mm
08:55 AM 53.1°F11.7°C 47.4°F8.6°C 81% 6.9 mph W11.1 kmh W 10.4 mph16.7 kmh 29.83 in1010.2 mb - 0.00 in0.0 mm 0.00 in0.0 mm
09:00 AM 53.2°F11.8°C 47.2°F8.4°C 80% 4.6 mph WSW7.4 kmh WSW 10.4 mph16.7 kmh 29.83 in1010.2 mb - 0.00 in0.0 mm 0.00 in0.0 mm
09:10 AM 53.4°F11.9°C 46.4°F8.0°C 77% 11.5 mph NW18.5 kmh NW 16.1 mph25.9 kmh 29.83 in1010.2 mb - 0.00 in0.0 mm 0.00 in0.0 mm
09:15 AM 53.8°F12.1°C 46.0°F7.8°C 75% 12.7 mph NW20.4 kmh NW 19.6 mph31.5 kmh 29.83 in1010.2 mb - 0.00 in0.0 mm 0.00 in0.0 mm
09:20 AM 54.1°F12.3°C 46.0°F7.8°C 74% 11.5 mph NW18.5 kmh NW 20.7 mph33.3 kmh 29.83 in1010.2 mb - 0.00 in0.0 mm 0.00 in0.0 mm
09:25 AM 54.1°F12.3°C 45.7°F7.6°C 73% 9.2 mph NW14.8 kmh NW 15.0 mph24.1 kmh 29.83 in1010.2 mb - 0.00 in0.0 mm 0.00 in0.0 mm
09:30 AM 54.5°F12.5°C 46.0°F7.8°C 73% 15.0 mph NW24.1 kmh NW 20.7 mph33.3 kmh 29.83 in1010.2 mb - 0.00 in0.0 mm 0.00 in0.0 mm
09:35 AM 54.9°F12.7°C 46.0°F7.8°C 72% 16.1 mph WNW25.9 kmh WNW 23.0 mph37.0 kmh 29.83 in1010.2 mb - 0.00 in0.0 mm 0.00 in0.0 mm
09:40 AM 54.9°F12.7°C 45.6°F7.6°C 71% 15.0 mph SW24.1 kmh SW 20.7 mph33.3 kmh 29.83 in1010.2 mb - 0.00 in0.0 mm 0.00 in0.0 mm
09:45 AM 55.0°F12.8°C 45.8°F7.7°C 71% 16.1 mph W25.9 kmh W 20.7 mph33.3 kmh 29.83 in1010.2 mb - 0.00 in0.0 mm 0.00 in0.0 mm
09:50 AM 55.6°F13.1°C 45.6°F7.6°C 69% 12.7 mph NW20.4 kmh NW 16.1 mph25.9 kmh 29.83 in1010.2 mb - 0.00 in0.0 mm 0.00 in0.0 mm
09:55 AM 56.1°F13.4°C 45.3°F7.4°C 67% 17.3 mph W27.8 kmh W 27.6 mph44.4 kmh 29.83 in1010.2 mb - 0.00 in0.0 mm 0.00 in0.0 mm
10:00 AM 55.8°F13.2°C 45.0°F7.2°C 67% 10.4 mph W16.7 kmh W 12.7 mph20.4 kmh 29.83 in1010.2 mb - 0.00 in0.0 mm 0.00 in0.0 mm
10:10 AM 55.8°F13.2°C 44.6°F7.0°C 66% 13.8 mph W22.2 kmh W 27.6 mph44.4 kmh 29.83 in1010.2 mb - 0.00 in0.0 mm 0.00 in0.0 mm
10:15 AM 55.8°F13.2°C 45.0°F7.2°C 67% 10.4 mph NW16.7 kmh NW 20.7 mph33.3 kmh 29.83 in1010.2 mb - 0.00 in0.0 mm 0.00 in0.0 mm
10:20 AM 56.3°F13.5°C 45.5°F7.5°C 67% 19.6 mph NW31.5 kmh NW 28.8 mph46.3 kmh 29.83 in1010.2 mb - 0.00 in0.0 mm 0.00 in0.0 mm
10:25 AM 56.3°F13.5°C 45.1°F7.3°C 66% 15.0 mph NW24.1 kmh NW 19.6 mph31.5 kmh 29.83 in1010.2 mb - 0.00 in0.0 mm 0.00 in0.0 mm
10:30 AM 56.1°F13.4°C 44.5°F6.9°C 65% 12.7 mph NW20.4 kmh NW 20.7 mph33.3 kmh 29.83 in1010.2 mb - 0.00 in0.0 mm 0.00 in0.0 mm
10:35 AM 56.1°F13.4°C 44.5°F6.9°C 65% 17.3 mph NW27.8 kmh NW 27.6 mph44.4 kmh 29.83 in1010.2 mb - 0.00 in0.0 mm 0.00 in0.0 mm
10:40 AM 56.5°F13.6°C 44.8°F7.1°C 65% 11.5 mph NW18.5 kmh NW 17.3 mph27.8 kmh 29.83 in1010.2 mb - 0.00 in0.0 mm 0.00 in0.0 mm
10:45 AM 57.0°F13.9°C 44.9°F7.2°C 64% 15.0 mph NW24.1 kmh NW 21.9 mph35.2 kmh 29.83 in1010.2 mb - 0.00 in0.0 mm 0.00 in0.0 mm
10:50 AM 57.2°F14.0°C 44.3°F6.8°C 62% 17.3 mph NW27.8 kmh NW 23.0 mph37.0 kmh 29.83 in1010.2 mb - 0.00 in0.0 mm 0.00 in0.0 mm
10:55 AM 57.6°F14.2°C 44.2°F6.8°C 61% 16.1 mph W25.9 kmh W 19.6 mph31.5 kmh 29.83 in1010.2 mb - 0.00 in0.0 mm 0.00 in0.0 mm
11:00 AM 57.6°F14.2°C 44.2°F6.8°C 61% 11.5 mph W18.5 kmh W 17.3 mph27.8 kmh 29.83 in1010.2 mb - 0.00 in0.0 mm 0.00 in0.0 mm
11:10 AM 57.4°F14.1°C 43.2°F6.2°C 59% 17.3 mph W27.8 kmh W 24.2 mph38.9 kmh 29.83 in1010.2 mb - 0.00 in0.0 mm 0.00 in0.0 mm
11:15 AM 56.5°F13.6°C 44.0°F6.7°C 63% 8.1 mph WSW13.0 kmh WSW 15.0 mph24.1 kmh 29.83 in1010.2 mb - 0.00 in0.0 mm 0.00 in0.0 mm
11:20 AM 56.8°F13.8°C 44.8°F7.1°C 64% 8.1 mph SW13.0 kmh SW 17.3 mph27.8 kmh 29.83 in1010.2 mb - 0.00 in0.0 mm 0.00 in0.0 mm
11:25 AM 57.5°F14.2°C 45.0°F7.2°C 63% 12.7 mph NW20.4 kmh NW 17.3 mph27.8 kmh 29.83 in1010.2 mb - 0.00 in0.0 mm 0.00 in0.0 mm
11:30 AM 57.6°F14.2°C 43.8°F6.6°C 60% 16.1 mph NW25.9 kmh NW 20.7 mph33.3 kmh 29.83 in1010.2 mb - 0.00 in0.0 mm 0.00 in0.0 mm
11:35 AM 57.6°F14.2°C 43.3°F6.3°C 59% 15.0 mph NW24.1 kmh NW 29.9 mph48.1 kmh 29.83 in1010.2 mb - 0.00 in0.0 mm 0.00 in0.0 mm
11:40 AM 57.2°F14.0°C 43.9°F6.6°C 61% 16.1 mph NW25.9 kmh NW 20.7 mph33.3 kmh 29.83 in1010.2 mb - 0.00 in0.0 mm 0.00 in0.0 mm
11:45 AM 57.5°F14.2°C 44.6°F7.0°C 62% 11.5 mph W18.5 kmh W 20.7 mph33.3 kmh 29.83 in1010.2 mb - 0.00 in0.0 mm 0.00 in0.0 mm
11:50 AM 58.1°F14.5°C 44.7°F7.1°C 61% 9.2 mph W14.8 kmh W 15.0 mph24.1 kmh 29.83 in1010.2 mb - 0.00 in0.0 mm 0.00 in0.0 mm
11:55 AM 58.3°F14.6°C 44.0°F6.7°C 59% 12.7 mph NW20.4 kmh NW 20.7 mph33.3 kmh 29.83 in1010.2 mb - 0.00 in0.0 mm 0.00 in0.0 mm
12:00 PM 58.1°F14.5°C 44.7°F7.1°C 61% 9.2 mph WNW14.8 kmh WNW 17.3 mph27.8 kmh 29.83 in1010.2 mb - 0.00 in0.0 mm 0.00 in0.0 mm
12:10 PM 57.9°F14.4°C 44.5°F6.9°C 61% 11.5 mph 18.5 kmh 20.7 mph33.3 kmh 29.80 in1009.1 mb - 0.00 in0.0 mm 0.00 in0.0 mm
12:15 PM 58.3°F14.6°C 44.4°F6.9°C 60% 25.3 mph 40.7 kmh 34.5 mph55.5 kmh 29.80 in1009.1 mb - 0.00 in0.0 mm 0.00 in0.0 mm
12:20 PM 58.3°F14.6°C 43.6°F6.4°C 58% 8.1 mph WNW13.0 kmh WNW 13.8 mph22.2 kmh 29.80 in1009.1 mb - 0.00 in0.0 mm 0.00 in0.0 mm
12:25 PM 58.6°F14.8°C 43.9°F6.6°C 58% 16.1 mph NW25.9 kmh NW 24.2 mph38.9 kmh 29.80 in1009.1 mb - 0.00 in0.0 mm 0.00 in0.0 mm
12:30 PM 58.8°F14.9°C 44.1°F6.7°C 58% 10.4 mph NW16.7 kmh NW 15.0 mph24.1 kmh 29.80 in1009.1 mb - 0.00 in0.0 mm 0.00 in0.0 mm
12:35 PM 59.2°F15.1°C 44.4°F6.9°C 58% 5.8 mph NNE9.3 kmh NNE 8.1 mph13.0 kmh 29.80 in1009.1 mb - 0.00 in0.0 mm 0.00 in0.0 mm
12:40 PM 59.4°F15.2°C 43.7°F6.5°C 56% 18.4 mph WNW29.6 kmh WNW 24.2 mph38.9 kmh 29.80 in1009.1 mb - 0.00 in0.0 mm 0.00 in0.0 mm
12:45 PM 59.5°F15.3°C 44.3°F6.8°C 57% 11.5 mph W18.5 kmh W 16.1 mph25.9 kmh 29.80 in1009.1 mb - 0.00 in0.0 mm 0.00 in0.0 mm
12:50 PM 60.2°F15.7°C 44.5°F6.9°C 56% 24.2 mph NW38.9 kmh NW 31.1 mph50.1 kmh 29.80 in1009.1 mb - 0.00 in0.0 mm 0.00 in0.0 mm
12:55 PM 60.8°F16.0°C 44.0°F6.7°C 54% 23.0 mph NW37.0 kmh NW 29.9 mph48.1 kmh 29.80 in1009.1 mb - 0.00 in0.0 mm 0.00 in0.0 mm
01:00 PM 60.6°F15.9°C 43.9°F6.6°C 54% 20.7 mph NW33.3 kmh NW 28.8 mph46.3 kmh 29.80 in1009.1 mb - 0.00 in0.0 mm 0.00 in0.0 mm
01:10 PM 60.4°F15.8°C 44.2°F6.8°C 55% 26.5 mph NW42.6 kmh NW 38.0 mph61.2 kmh 29.77 in1008.1 mb - 0.00 in0.0 mm 0.00 in0.0 mm
01:15 PM 60.6°F15.9°C 43.9°F6.6°C 54% 21.9 mph NW35.2 kmh NW 33.4 mph53.8 kmh 29.77 in1008.1 mb - 0.00 in0.0 mm 0.00 in0.0 mm
01:20 PM 61.0°F16.1°C 44.7°F7.1°C 55% 18.4 mph W29.6 kmh W 27.6 mph44.4 kmh 29.77 in1008.1 mb - 0.00 in0.0 mm 0.00 in0.0 mm
01:25 PM 61.3°F16.3°C 44.1°F6.7°C 53% 18.4 mph NW29.6 kmh NW 31.1 mph50.1 kmh 29.77 in1008.1 mb - 0.00 in0.0 mm 0.00 in0.0 mm
01:30 PM 61.0°F16.1°C 44.2°F6.8°C 54% 19.6 mph WSW31.5 kmh WSW 27.6 mph44.4 kmh 29.77 in1008.1 mb - 0.00 in0.0 mm 0.00 in0.0 mm
01:35 PM 61.3°F16.3°C 44.1°F6.7°C 53% 19.6 mph NW31.5 kmh NW 29.9 mph48.1 kmh 29.77 in1008.1 mb - 0.00 in0.0 mm 0.00 in0.0 mm
01:40 PM 61.3°F16.3°C 44.1°F6.7°C 53% 18.4 mph NW29.6 kmh NW 26.5 mph42.6 kmh 29.77 in1008.1 mb - 0.00 in0.0 mm 0.00 in0.0 mm
01:45 PM 61.2°F16.2°C 43.9°F6.6°C 53% 24.2 mph NW38.9 kmh NW 32.2 mph51.8 kmh 29.77 in1008.1 mb - 0.00 in0.0 mm 0.00 in0.0 mm
01:50 PM 61.0°F16.1°C 43.7°F6.5°C 53% 18.4 mph WSW29.6 kmh WSW 25.3 mph40.7 kmh 29.77 in1008.1 mb - 0.00 in0.0 mm 0.00 in0.0 mm
01:55 PM 61.7°F16.5°C 44.4°F6.9°C 53% 19.6 mph NW31.5 kmh NW 33.4 mph53.8 kmh 29.77 in1008.1 mb - 0.00 in0.0 mm 0.00 in0.0 mm
02:00 PM 61.7°F16.5°C 44.4°F6.9°C 53% 16.1 mph NW25.9 kmh NW 29.9 mph48.1 kmh 29.77 in1008.1 mb - 0.00 in0.0 mm 0.00 in0.0 mm
02:10 PM 61.9°F16.6°C 43.5°F6.4°C 51% 19.6 mph WSW31.5 kmh WSW 26.5 mph42.6 kmh 29.77 in1008.1 mb - 0.00 in0.0 mm 0.00 in0.0 mm
02:15 PM 61.9°F16.6°C 44.1°F6.7°C 52% 16.1 mph NW25.9 kmh NW 20.7 mph33.3 kmh 29.77 in1008.1 mb - 0.00 in0.0 mm 0.00 in0.0 mm
02:20 PM 61.9°F16.6°C 44.1°F6.7°C 52% 18.4 mph NW29.6 kmh NW 26.5 mph42.6 kmh 29.77 in1008.1 mb - 0.00 in0.0 mm 0.00 in0.0 mm
02:25 PM 62.1°F16.7°C 43.7°F6.5°C 51% 15.0 mph NW24.1 kmh NW 20.7 mph33.3 kmh 29.77 in1008.1 mb - 0.00 in0.0 mm 0.00 in0.0 mm
02:30 PM 62.2°F16.8°C 43.9°F6.6°C 51% 16.1 mph NW25.9 kmh NW 25.3 mph40.7 kmh 29.77 in1008.1 mb - 0.00 in0.0 mm 0.00 in0.0 mm
02:35 PM 61.9°F16.6°C 43.0°F6.1°C 50% 21.9 mph NW35.2 kmh NW 33.4 mph53.8 kmh 29.77 in1008.1 mb - 0.00 in0.0 mm 0.00 in0.0 mm
02:40 PM 61.5°F16.4°C 43.7°F6.5°C 52% 15.0 mph WSW24.1 kmh WSW 25.3 mph40.7 kmh 29.77 in1008.1 mb - 0.00 in0.0 mm 0.00 in0.0 mm
02:45 PM 61.7°F16.5°C 43.9°F6.6°C 52% 13.8 mph NW22.2 kmh NW 17.3 mph27.8 kmh 29.77 in1008.1 mb - 0.00 in0.0 mm 0.00 in0.0 mm
02:50 PM 61.5°F16.4°C 43.7°F6.5°C 52% 20.7 mph WNW33.3 kmh WNW 28.8 mph46.3 kmh 29.77 in1008.1 mb - 0.00 in0.0 mm 0.00 in0.0 mm
02:55 PM 61.0°F16.1°C 43.2°F6.2°C 52% 13.8 mph WNW22.2 kmh WNW 25.3 mph40.7 kmh 29.77 in1008.1 mb - 0.00 in0.0 mm 0.00 in0.0 mm
03:00 PM 61.0°F16.1°C 43.7°F6.5°C 53% 16.1 mph NW25.9 kmh NW 19.6 mph31.5 kmh 29.77 in1008.1 mb - 0.00 in0.0 mm 0.00 in0.0 mm
03:10 PM 61.2°F16.2°C 43.9°F6.6°C 53% 16.1 mph WNW25.9 kmh WNW 20.7 mph33.3 kmh 29.74 in1007.1 mb - 0.00 in0.0 mm 0.00 in0.0 mm
03:15 PM 61.2°F16.2°C 44.4°F6.9°C 54% 13.8 mph NW22.2 kmh NW 23.0 mph37.0 kmh 29.74 in1007.1 mb - 0.00 in0.0 mm 0.00 in0.0 mm
03:20 PM 61.7°F16.5°C 44.9°F7.2°C 54% 10.4 mph NW16.7 kmh NW 16.1 mph25.9 kmh 29.74 in1007.1 mb - 0.00 in0.0 mm 0.00 in0.0 mm
03:25 PM 62.1°F16.7°C 44.7°F7.1°C 53% 20.7 mph WNW33.3 kmh WNW 29.9 mph48.1 kmh 29.74 in1007.1 mb - 0.00 in0.0 mm 0.00 in0.0 mm
03:30 PM 61.7°F16.5°C 44.9°F7.2°C 54% 17.3 mph NW27.8 kmh NW 26.5 mph42.6 kmh 29.74 in1007.1 mb - 0.00 in0.0 mm 0.00 in0.0 mm
03:35 PM 61.3°F16.3°C 45.0°F7.2°C 55% 10.4 mph W16.7 kmh W 20.7 mph33.3 kmh 29.74 in1007.1 mb - 0.00 in0.0 mm 0.00 in0.0 mm
03:40 PM 61.2°F16.2°C 45.3°F7.4°C 56% 17.3 mph NW27.8 kmh NW 26.5 mph42.6 kmh 29.74 in1007.1 mb - 0.00 in0.0 mm 0.00 in0.0 mm
03:45 PM 61.0°F16.1°C 45.6°F7.6°C 57% 18.4 mph WNW29.6 kmh WNW 26.5 mph42.6 kmh 29.74 in1007.1 mb - 0.00 in0.0 mm 0.00 in0.0 mm
03:50 PM 60.8°F16.0°C 45.9°F7.7°C 58% 13.8 mph WSW22.2 kmh WSW 19.6 mph31.5 kmh 29.74 in1007.1 mb - 0.00 in0.0 mm 0.00 in0.0 mm
03:55 PM 61.0°F16.1°C 45.6°F7.6°C 57% 15.0 mph NW24.1 kmh NW 23.0 mph37.0 kmh 29.74 in1007.1 mb - 0.00 in0.0 mm 0.00 in0.0 mm
04:00 PM 61.0°F16.1°C 45.6°F7.6°C 57% 13.8 mph NW22.2 kmh NW 23.0 mph37.0 kmh 29.74 in1007.1 mb - 0.00 in0.0 mm 0.00 in0.0 mm
04:10 PM 60.8°F16.0°C 46.4°F8.0°C 59% 15.0 mph WSW24.1 kmh WSW 26.5 mph42.6 kmh 29.71 in1006.1 mb - 0.00 in0.0 mm 0.00 in0.0 mm
04:15 PM 60.6°F15.9°C 47.1°F8.4°C 61% 15.0 mph N24.1 kmh N 23.0 mph37.0 kmh 29.71 in1006.1 mb - 0.00 in0.0 mm 0.00 in0.0 mm
04:20 PM 60.3°F15.7°C 47.2°F8.4°C 62% 17.3 mph NW27.8 kmh NW 23.0 mph37.0 kmh 29.71 in1006.1 mb - 0.00 in0.0 mm 0.00 in0.0 mm
04:25 PM 59.9°F15.5°C 47.3°F8.5°C 63% 18.4 mph NW29.6 kmh NW 25.3 mph40.7 kmh 29.71 in1006.1 mb - 0.00 in0.0 mm 0.00 in0.0 mm
04:30 PM 59.9°F15.5°C 47.7°F8.7°C 64% 11.5 mph W18.5 kmh W 16.1 mph25.9 kmh 29.71 in1006.1 mb - 0.00 in0.0 mm 0.00 in0.0 mm
04:35 PM 59.9°F15.5°C 47.7°F8.7°C 64% 16.1 mph W25.9 kmh W 21.9 mph35.2 kmh 29.71 in1006.1 mb - 0.00 in0.0 mm 0.00 in0.0 mm
04:40 PM 59.4°F15.2°C 47.6°F8.7°C 65% 17.3 mph W27.8 kmh W 28.8 mph46.3 kmh 29.71 in1006.1 mb - 0.00 in0.0 mm 0.00 in0.0 mm
04:45 PM 58.8°F14.9°C 48.3°F9.1°C 68% 17.3 mph NW27.8 kmh NW 28.8 mph46.3 kmh 29.71 in1006.1 mb - 0.00 in0.0 mm 0.00 in0.0 mm
04:50 PM 58.3°F14.6°C 48.5°F9.2°C 70% 13.8 mph NW22.2 kmh NW 17.3 mph27.8 kmh 29.71 in1006.1 mb - 0.00 in0.0 mm 0.00 in0.0 mm
04:55 PM 57.8°F14.3°C 48.8°F9.3°C 72% 15.0 mph NW24.1 kmh NW 23.0 mph37.0 kmh 29.71 in1006.1 mb - 0.00 in0.0 mm 0.00 in0.0 mm
05:00 PM 57.6°F14.2°C 49.0°F9.4°C 73% 15.0 mph NNW24.1 kmh NNW 20.7 mph33.3 kmh 29.71 in1006.1 mb - 0.00 in0.0 mm 0.00 in0.0 mm
05:10 PM 57.6°F14.2°C 49.0°F9.4°C 73% 11.5 mph W18.5 kmh W 19.6 mph31.5 kmh 29.71 in1006.1 mb - 0.00 in0.0 mm 0.00 in0.0 mm
05:15 PM 57.4°F14.1°C 48.8°F9.3°C 73% 15.0 mph NW24.1 kmh NW 19.6 mph31.5 kmh 29.71 in1006.1 mb - 0.00 in0.0 mm 0.00 in0.0 mm
05:20 PM 57.4°F14.1°C 49.2°F9.6°C 74% 12.7 mph NW20.4 kmh NW 19.6 mph31.5 kmh 29.71 in1006.1 mb - 0.00 in0.0 mm 0.00 in0.0 mm
05:25 PM 57.2°F14.0°C 49.0°F9.4°C 74% 10.4 mph 16.7 kmh 17.3 mph27.8 kmh 29.71 in1006.1 mb - 0.00 in0.0 mm 0.00 in0.0 mm
05:30 PM 57.2°F14.0°C 49.0°F9.4°C 74% 10.4 mph WSW16.7 kmh WSW 12.7 mph20.4 kmh 29.71 in1006.1 mb - 0.00 in0.0 mm 0.00 in0.0 mm
05:35 PM 57.4°F14.1°C 48.8°F9.3°C 73% 15.0 mph NW24.1 kmh NW 17.3 mph27.8 kmh 29.71 in1006.1 mb - 0.00 in0.0 mm 0.00 in0.0 mm
05:40 PM 57.5°F14.2°C 48.6°F9.2°C 72% 12.7 mph WNW20.4 kmh WNW 19.6 mph31.5 kmh 29.71 in1006.1 mb - 0.00 in0.0 mm 0.00 in0.0 mm
05:45 PM 57.7°F14.3°C 48.4°F9.1°C 71% 15.0 mph NW24.1 kmh NW 23.0 mph37.0 kmh 29.71 in1006.1 mb - 0.00 in0.0 mm 0.00 in0.0 mm
05:50 PM 58.1°F14.5°C 48.4°F9.1°C 70% 13.8 mph WNW22.2 kmh WNW 19.6 mph31.5 kmh 29.71 in1006.1 mb - 0.00 in0.0 mm 0.00 in0.0 mm
05:55 PM 58.3°F14.6°C 48.5°F9.2°C 70% 9.2 mph WNW14.8 kmh WNW 15.0 mph24.1 kmh 29.71 in1006.1 mb - 0.00 in0.0 mm 0.00 in0.0 mm
06:00 PM 58.3°F14.6°C 49.3°F9.6°C 72% 13.8 mph SW22.2 kmh SW 18.4 mph29.6 kmh 29.71 in1006.1 mb - 0.00 in0.0 mm 0.00 in0.0 mm
06:10 PM 57.9°F14.4°C 49.7°F9.8°C 74% 11.5 mph NW18.5 kmh NW 20.7 mph33.3 kmh 29.68 in1005.1 mb - 0.00 in0.0 mm 0.00 in0.0 mm
06:15 PM 57.7°F14.3°C 49.9°F9.9°C 75% 12.7 mph S20.4 kmh S 19.6 mph31.5 kmh 29.68 in1005.1 mb - 0.00 in0.0 mm 0.00 in0.0 mm
06:20 PM 57.6°F14.2°C 49.7°F9.8°C 75% 9.2 mph NW14.8 kmh NW 15.0 mph24.1 kmh 29.68 in1005.1 mb - 0.00 in0.0 mm 0.00 in0.0 mm
06:25 PM 57.6°F14.2°C 50.0°F10.0°C 76% 15.0 mph NW24.1 kmh NW 17.3 mph27.8 kmh 29.68 in1005.1 mb - 0.00 in0.0 mm 0.00 in0.0 mm
06:30 PM 57.4°F14.1°C 49.9°F9.9°C 76% 8.1 mph NW13.0 kmh NW 17.3 mph27.8 kmh 29.68 in1005.1 mb - 0.00 in0.0 mm 0.00 in0.0 mm
06:35 PM 57.2°F14.0°C 50.1°F10.1°C 77% 4.6 mph WSW7.4 kmh WSW 12.7 mph20.4 kmh 29.68 in1005.1 mb - 0.00 in0.0 mm 0.00 in0.0 mm
06:40 PM 57.2°F14.0°C 50.1°F10.1°C 77% 2.3 mph WSW3.7 kmh WSW 8.1 mph13.0 kmh 29.68 in1005.1 mb - 0.00 in0.0 mm 0.00 in0.0 mm
06:45 PM 57.0°F13.9°C 50.2°F10.1°C 78% 6.9 mph W11.1 kmh W 12.7 mph20.4 kmh 29.68 in1005.1 mb - 0.00 in0.0 mm 0.00 in0.0 mm
06:50 PM 57.2°F14.0°C 50.4°F10.2°C 78% 8.1 mph NW13.0 kmh NW 10.4 mph16.7 kmh 29.68 in1005.1 mb - 0.00 in0.0 mm 0.00 in0.0 mm
06:55 PM 56.8°F13.8°C 50.7°F10.4°C 80% 11.5 mph WNW18.5 kmh WNW 15.0 mph24.1 kmh 29.68 in1005.1 mb - 0.00 in0.0 mm 0.00 in0.0 mm
07:00 PM 56.8°F13.8°C 51.1°F10.6°C 81% 5.8 mph W9.3 kmh W 12.7 mph20.4 kmh 29.68 in1005.1 mb - 0.00 in0.0 mm 0.00 in0.0 mm
07:10 PM 56.5°F13.6°C 51.4°F10.8°C 83% 5.8 mph WNW9.3 kmh WNW 9.2 mph14.8 kmh 29.68 in1005.1 mb - 0.00 in0.0 mm 0.00 in0.0 mm
07:15 PM 56.1°F13.4°C 51.7°F10.9°C 85% 6.9 mph NW11.1 kmh NW 9.2 mph14.8 kmh 29.68 in1005.1 mb - 0.00 in0.0 mm 0.00 in0.0 mm
07:20 PM 55.9°F13.3°C 51.8°F11.0°C 86% 3.5 mph S5.6 kmh S 6.9 mph11.1 kmh 29.68 in1005.1 mb - 0.00 in0.0 mm 0.00 in0.0 mm
07:25 PM 55.8°F13.2°C 51.9°F11.1°C 87% 4.6 mph W7.4 kmh W 8.1 mph13.0 kmh 29.68 in1005.1 mb - 0.00 in0.0 mm 0.00 in0.0 mm
07:30 PM 55.6°F13.1°C 52.1°F11.2°C 88% 6.9 mph NW11.1 kmh NW 8.1 mph13.0 kmh 29.68 in1005.1 mb - 0.00 in0.0 mm 0.00 in0.0 mm
07:35 PM 55.4°F13.0°C 51.9°F11.1°C 88% 3.5 mph W5.6 kmh W 8.1 mph13.0 kmh 29.68 in1005.1 mb - 0.00 in0.0 mm 0.00 in0.0 mm
07:40 PM 55.2°F12.9°C 52.0°F11.1°C 89% Calm Calm 2.3 mph3.7 kmh 29.68 in1005.1 mb - 0.00 in0.0 mm 0.00 in0.0 mm
07:45 PM 55.0°F12.8°C 51.9°F11.1°C 89% 1.2 mph NNW1.9 kmh NNW 3.5 mph5.6 kmh 29.68 in1005.1 mb - 0.00 in0.0 mm 0.00 in0.0 mm
07:50 PM 54.9°F12.7°C 51.7°F10.9°C 89% 3.5 mph W5.6 kmh W 8.1 mph13.0 kmh 29.68 in1005.1 mb - 0.00 in0.0 mm 0.00 in0.0 mm
07:55 PM 55.0°F12.8°C 52.5°F11.4°C 91% 5.8 mph W9.3 kmh W 8.1 mph13.0 kmh 29.68 in1005.1 mb - 0.00 in0.0 mm 0.00 in0.0 mm
08:00 PM 55.2°F12.9°C 52.6°F11.4°C 91% 4.6 mph NW7.4 kmh NW 9.2 mph14.8 kmh 29.68 in1005.1 mb - 0.00 in0.0 mm 0.00 in0.0 mm
08:10 PM 55.8°F13.2°C 53.2°F11.8°C 91% 5.8 mph SW9.3 kmh SW 9.2 mph14.8 kmh 29.68 in1005.1 mb - 0.00 in0.0 mm 0.00 in0.0 mm
08:15 PM 55.8°F13.2°C 53.2°F11.8°C 91% 5.8 mph NW9.3 kmh NW 6.9 mph11.1 kmh 29.68 in1005.1 mb - 0.00 in0.0 mm 0.00 in0.0 mm
08:20 PM 55.8°F13.2°C 53.2°F11.8°C 91% 3.5 mph S5.6 kmh S 5.8 mph9.3 kmh 29.68 in1005.1 mb - 0.00 in0.0 mm 0.00 in0.0 mm
08:25 PM 55.8°F13.2°C 53.2°F11.8°C 91% 4.6 mph NW7.4 kmh NW 8.1 mph13.0 kmh 29.68 in1005.1 mb - 0.00 in0.0 mm 0.00 in0.0 mm
08:30 PM 55.8°F13.2°C 53.2°F11.8°C 91% 5.8 mph WSW9.3 kmh WSW 10.4 mph16.7 kmh 29.68 in1005.1 mb - 0.00 in0.0 mm 0.00 in0.0 mm
08:35 PM 55.9°F13.3°C 53.4°F11.9°C 91% 5.8 mph W9.3 kmh W 8.1 mph13.0 kmh 29.68 in1005.1 mb - 0.00 in0.0 mm 0.00 in0.0 mm
08:40 PM 55.9°F13.3°C 53.0°F11.7°C 90% 5.8 mph NNW9.3 kmh NNW 8.1 mph13.0 kmh 29.68 in1005.1 mb - 0.00 in0.0 mm 0.00 in0.0 mm
08:45 PM 55.9°F13.3°C 53.0°F11.7°C 90% 5.8 mph NW9.3 kmh NW 10.4 mph16.7 kmh 29.68 in1005.1 mb - 0.00 in0.0 mm 0.00 in0.0 mm
08:50 PM 55.9°F13.3°C 53.0°F11.7°C 90% 3.5 mph WSW5.6 kmh WSW 10.4 mph16.7 kmh 29.68 in1005.1 mb - 0.00 in0.0 mm 0.00 in0.0 mm
08:55 PM 56.1°F13.4°C 53.2°F11.8°C 90% 9.2 mph NW14.8 kmh NW 10.4 mph16.7 kmh 29.68 in1005.1 mb - 0.00 in0.0 mm 0.00 in0.0 mm
09:00 PM 56.3°F13.5°C 53.4°F11.9°C 90% 3.5 mph NW5.6 kmh NW 5.8 mph9.3 kmh 29.68 in1005.1 mb - 0.00 in0.0 mm 0.00 in0.0 mm
09:10 PM 56.3°F13.5°C 53.4°F11.9°C 90% 5.8 mph NW9.3 kmh NW 8.1 mph13.0 kmh 29.68 in1005.1 mb - 0.00 in0.0 mm 0.00 in0.0 mm
09:15 PM 56.5°F13.6°C 53.3°F11.8°C 89% 10.4 mph W16.7 kmh W 15.0 mph24.1 kmh 29.68 in1005.1 mb - 0.00 in0.0 mm 0.00 in0.0 mm
09:20 PM 56.7°F13.7°C 53.5°F11.9°C 89% 8.1 mph NW13.0 kmh NW 12.7 mph20.4 kmh 29.68 in1005.1 mb - 0.00 in0.0 mm 0.00 in0.0 mm
09:25 PM 56.8°F13.8°C 53.3°F11.8°C 88% 4.6 mph NW7.4 kmh NW 6.9 mph11.1 kmh 29.68 in1005.1 mb - 0.00 in0.0 mm 0.00 in0.0 mm
09:30 PM 56.8°F13.8°C 53.3°F11.8°C 88% 4.6 mph SW7.4 kmh SW 12.7 mph20.4 kmh 29.68 in1005.1 mb - 0.00 in0.0 mm 0.00 in0.0 mm
09:35 PM 57.0°F13.9°C 53.2°F11.8°C 87% 5.8 mph N9.3 kmh N 8.1 mph13.0 kmh 29.68 in1005.1 mb - 0.00 in0.0 mm 0.00 in0.0 mm
09:40 PM 57.0°F13.9°C 53.2°F11.8°C 87% 9.2 mph NW14.8 kmh NW 16.1 mph25.9 kmh 29.68 in1005.1 mb - 0.00 in0.0 mm 0.00 in0.0 mm
09:45 PM 57.0°F13.9°C 52.9°F11.6°C 86% 5.8 mph W9.3 kmh W 10.4 mph16.7 kmh 29.68 in1005.1 mb - 0.00 in0.0 mm 0.00 in0.0 mm
09:50 PM 57.0°F13.9°C 52.9°F11.6°C 86% 9.2 mph WNW14.8 kmh WNW 13.8 mph22.2 kmh 29.68 in1005.1 mb - 0.00 in0.0 mm 0.00 in0.0 mm
09:55 PM 57.2°F14.0°C 52.4°F11.3°C 84% 8.1 mph W13.0 kmh W 10.4 mph16.7 kmh 29.68 in1005.1 mb - 0.00 in0.0 mm 0.00 in0.0 mm
10:00 PM 57.2°F14.0°C 52.4°F11.3°C 84% 5.8 mph NW9.3 kmh NW 12.7 mph20.4 kmh 29.68 in1005.1 mb - 0.00 in0.0 mm 0.00 in0.0 mm
10:10 PM 57.2°F14.0°C 51.8°F11.0°C 82% 10.4 mph NW16.7 kmh NW 16.1 mph25.9 kmh 29.68 in1005.1 mb - 0.00 in0.0 mm 0.00 in0.0 mm
10:15 PM 57.2°F14.0°C 51.4°F10.8°C 81% 8.1 mph NW13.0 kmh NW 10.4 mph16.7 kmh 29.68 in1005.1 mb - 0.00 in0.0 mm 0.00 in0.0 mm
10:20 PM 57.2°F14.0°C 51.1°F10.6°C 80% 6.9 mph NW11.1 kmh NW 11.5 mph18.5 kmh 29.68 in1005.1 mb - 0.00 in0.0 mm 0.00 in0.0 mm
10:25 PM 57.0°F13.9°C 51.2°F10.7°C 81% 9.2 mph N14.8 kmh N 12.7 mph20.4 kmh 29.68 in1005.1 mb - 0.00 in0.0 mm 0.00 in0.0 mm
10:30 PM 57.0°F13.9°C 51.2°F10.7°C 81% 6.9 mph W11.1 kmh W 13.8 mph22.2 kmh 29.68 in1005.1 mb - 0.00 in0.0 mm 0.00 in0.0 mm
10:35 PM 56.8°F13.8°C 51.4°F10.8°C 82% 9.2 mph NW14.8 kmh NW 15.0 mph24.1 kmh 29.68 in1005.1 mb - 0.00 in0.0 mm 0.00 in0.0 mm
10:40 PM 56.3°F13.5°C 51.2°F10.7°C 83% 9.2 mph NW14.8 kmh NW 12.7 mph20.4 kmh 29.68 in1005.1 mb - 0.00 in0.0 mm 0.00 in0.0 mm
10:45 PM 55.8°F13.2°C 51.3°F10.7°C 85% 6.9 mph W11.1 kmh W 10.4 mph16.7 kmh 29.68 in1005.1 mb - 0.00 in0.0 mm 0.00 in0.0 mm
10:50 PM 55.2°F12.9°C 51.1°F10.6°C 86% 8.1 mph WSW13.0 kmh WSW 16.1 mph25.9 kmh 29.68 in1005.1 mb - 0.00 in0.0 mm 0.00 in0.0 mm
10:55 PM 54.7°F12.6°C 51.2°F10.7°C 88% 11.5 mph W18.5 kmh W 16.1 mph25.9 kmh 29.68 in1005.1 mb - 0.00 in0.0 mm 0.00 in0.0 mm
11:00 PM 54.3°F12.4°C 51.4°F10.8°C 90% 4.6 mph NW7.4 kmh NW 12.7 mph20.4 kmh 29.68 in1005.1 mb - 0.00 in0.0 mm 0.00 in0.0 mm
11:10 PM 53.8°F12.1°C 51.5°F10.8°C 92% 10.4 mph NW16.7 kmh NW 15.0 mph24.1 kmh 29.65 in1004.1 mb - 0.00 in0.0 mm 0.00 in0.0 mm
11:15 PM 53.6°F12.0°C 51.6°F10.9°C 93% 6.9 mph NW11.1 kmh NW 9.2 mph14.8 kmh 29.65 in1004.1 mb - 0.00 in0.0 mm 0.00 in0.0 mm
11:20 PM 53.4°F11.9°C 51.7°F10.9°C 94% 6.9 mph NNW11.1 kmh NNW 10.4 mph16.7 kmh 29.65 in1004.1 mb - 0.00 in0.0 mm 0.00 in0.0 mm
11:25 PM 53.2°F11.8°C 51.6°F10.9°C 94% 10.4 mph NW16.7 kmh NW 17.3 mph27.8 kmh 29.65 in1004.1 mb - 0.00 in0.0 mm 0.00 in0.0 mm
11:30 PM 53.1°F11.7°C 51.7°F10.9°C 95% 10.4 mph NW16.7 kmh NW 13.8 mph22.2 kmh 29.65 in1004.1 mb - 0.00 in0.0 mm 0.00 in0.0 mm
11:35 PM 52.9°F11.6°C 51.5°F10.8°C 95% 9.2 mph NW14.8 kmh NW 12.7 mph20.4 kmh 29.65 in1004.1 mb - 0.00 in0.0 mm 0.00 in0.0 mm
11:40 PM 52.7°F11.5°C 51.3°F10.7°C 95% 9.2 mph NW14.8 kmh NW 12.7 mph20.4 kmh 29.65 in1004.1 mb - 0.00 in0.0 mm 0.00 in0.0 mm
11:45 PM 52.7°F11.5°C 51.6°F10.9°C 96% 9.2 mph S14.8 kmh S 12.7 mph20.4 kmh 29.65 in1004.1 mb - 0.00 in0.0 mm 0.00 in0.0 mm
11:50 PM 52.7°F11.5°C 51.6°F10.9°C 96% 11.5 mph NW18.5 kmh NW 15.0 mph24.1 kmh 29.65 in1004.1 mb - 0.00 in0.0 mm 0.00 in0.0 mm
11:55 PM 52.5°F11.4°C 51.4°F10.8°C 96% 10.4 mph NW16.7 kmh NW 16.1 mph25.9 kmh 29.65 in1004.1 mb - 0.00 in0.0 mm 0.00 in0.0 mm